Historyczne dane pomiarowe

Dodano dane terminowe – wersja testowa.

Dane z okresu 1951-2019

Wersja bazy: 1.34 [2019-03-16, lista zmian], aktualizacja planowana na 2019-04-15

Dane meteo z obszaru Polski uzyskane na podstawie danych udostępnionych przez Instytut Meteorologii i Gospodarki Wodnej – Państwowy Instytut Badawczy.

 

Wybierz Datę:    

       

TemperaturaWilgotnośćWiatrCiśnienieOpadyŚniegCzas trwania zjawisk
 Stacja t tx tn tng RH VA  wxwx mslp ppp RRR   cm mm wxwxwxwxwxwxwx
1961-08-14 14.0 20.3 8.4--- 4.0 2.3---- 0.0------------
1961-08-13 13.8 18.7 12.9--- 7.7 2.3---- 10.0------------
1961-08-12 19.7 25.4 15.6--- 6.3 3.7---- 14.1------------
1961-08-11 25.6 32.4 19.0--- 2.3 6.0---- 0.0------------
1961-08-10 25.9 31.7 19.0--- 4.0 2.7---- 0.0------------
1961-08-09 23.1 30.3 15.7--- 3.7 2.0---- 13.8------------
1961-08-08 22.2 26.9 17.2--- 3.3 3.0---- 0.0------------
1961-08-07 24.9 29.5 17.5--- 0.7 2.7---- 0.0------------
1961-08-06 23.8 28.4 12.8--- 0.0 4.0---- 0.0------------
1961-08-05 18.7 24.1 14.2--- 3.0 2.0---- 0.0------------
1961-08-04 16.1 20.8 13.3--- 3.0 2.0---- 0.0------------
1961-08-03 17.9 23.9 12.0--- 6.3 2.7---- 7.5------------
1961-08-02 17.6 25.3 8.4--- 0.0 1.0---- 0.0------------
1961-08-01 16.3 21.4 10.8--- 4.3 3.3---- 0.0------------
1961-07-31 14.2 18.4 10.9--- 6.0 2.7---- 9.5------------
1961-07-30 11.9 13.5 10.9--- 8.0 4.0---- 12.9------------
1961-07-29 14.1 21.0 12.9--- 8.0 2.0---- 30.7------------
1961-07-28 20.7 27.0 16.1--- 3.3 4.3---- 5.3------------
1961-07-27 21.3 26.4 13.7--- 4.0 5.3---- 3.0------------
1961-07-26 16.1 22.1 10.8--- 4.7 2.0---- 0.0------------
1961-07-25 13.1 18.2 10.5--- 6.0 2.7---- 0.0------------
1961-07-24 15.7 20.3 12.8--- 5.3 2.3---- 0.0------------
1961-07-23 16.2 21.2 10.6--- 5.3 2.0---- 0.0------------
1961-07-22 15.1 19.9 13.2--- 4.7 3.3---- 0.0------------
1961-07-21 15.6 20.2 11.5--- 3.7 3.3---- 5.0------------
1961-07-20 14.8 19.9 7.8--- 7.0 3.0---- 25.3------------
1961-07-19 14.7 21.6 7.3--- 4.0 1.7---- 0.0------------
1961-07-18 14.7 20.7 9.7--- 3.0 3.3---- 0.0------------
1961-07-17 16.4 23.3 13.7--- 6.0 2.0---- 2.5------------
1961-07-16 18.3 23.2 13.3--- 5.0 3.7---- 0.2------------
1961-07-15 18.7 25.1 9.1--- 3.7 4.0---- 0.9------------
1961-07-14 13.6 19.8 11.2--- 4.7 2.3---- 0.0------------
1961-07-13 20.5 29.1 9.8--- 3.0 6.3---- 3.3------------
1961-07-12 21.1 27.3 9.0--- 4.0 1.7---- 0.0------------
1961-07-11 15.4 21.3 6.4--- 3.7 1.3---- 0.0------------
1961-07-10 13.5 20.4 10.6--- 4.3 4.0---- 3.6------------
1961-07-09 15.5 23.6 6.8--- 5.3 3.0---- 1.4------------
1961-07-08 13.7 21.6 8.7--- 1.7 1.0---- 0.0------------
1961-07-07 13.9 18.9 5.6--- 5.7 2.0---- 0.0------------
1961-07-06 12.8 17.7 8.0--- 2.7 3.7---- 0.0------------
1961-07-05 14.9 19.6 12.5--- 7.0 1.7---- 0.6------------
1961-07-04 21.9 31.0 12.9--- 3.0 3.7---- 8.0------------
1961-07-03 19.7 30.9 9.3--- 0.3 1.3---- 0.0------------
1961-07-02 16.8 28.3 9.4--- 0.0 1.3---- 0.0------------
1961-07-01 18.0 26.7 8.5--- 3.0 2.0---- 0.0------------
1961-06-30 16.5 23.0 10.8--- 3.3 2.7---- 0.0------------
1961-06-29 14.4 20.3 5.4--- 1.7 1.7---- 0.0------------
1961-06-28 14.3 23.7 11.3--- 5.3 3.0---- 2.2------------
1961-06-27 24.8 31.5 13.8--- 2.3 5.7---- 0.7------------
1961-06-26 21.4 30.1 13.5--- 3.0 3.0---- 1.0------------
1961-06-25 20.1 28.9 9.2--- 1.3 2.0---- 0.0------------
1961-06-24 17.6 25.6 10.2--- 4.3 2.7---- 0.0------------
1961-06-23 17.4 23.6 14.7--- 4.7 2.3---- 1.5------------
1961-06-22 18.9 25.1 9.0--- 2.7 3.0---- 3.0------------
1961-06-21 16.7 24.3 5.1--- 0.3 3.7---- 0.0------------
1961-06-20 15.1 21.1 11.8--- 2.3 3.3---- 0.0------------
1961-06-19 20.6 28.9 11.8--- 3.3 3.7---- 0.0------------
1961-06-18 17.9 26.2 6.9--- 1.7 2.3---- 0.0------------
1961-06-17 13.8 22.2 5.5--- 1.3 2.0---- 0.0------------
1961-06-16 13.1 19.9 8.0--- 1.3 1.3---- 0.0------------
471.2 ms

 

Źródłem pochodzenia danych jest Instytut Meteorologii i Gospodarki Wodnej – Państwowy Instytut Badawczy. Dane Instytutu Meteorologii i Gospodarki Wodnej – Państwowego Instytutu Badawczego zostały przetworzone.

Dane źródłowe można odnaleźć na stronie https://dane.imgw.pl